createdAt,value
2019-03-19T00:02:08.631Z,97650.00
2019-03-19T00:04:39.753Z,97649.00
2019-03-19T00:07:10.864Z,97644.00
2019-03-19T00:09:42.250Z,97644.00
2019-03-19T00:12:13.678Z,97658.00
2019-03-19T00:14:44.878Z,97659.00
2019-03-19T00:17:16.444Z,97650.00
2019-03-19T00:19:47.995Z,97665.00
2019-03-19T00:22:19.007Z,97666.00
2019-03-19T00:24:50.389Z,97667.00
2019-03-19T00:27:21.570Z,97661.00
2019-03-19T00:29:52.971Z,97668.00
2019-03-19T00:32:24.057Z,97656.00
2019-03-19T00:34:55.186Z,97674.00
2019-03-19T00:37:26.359Z,97664.00
2019-03-19T00:39:57.468Z,97682.00
2019-03-19T00:42:28.998Z,97700.00
2019-03-19T00:45:00.184Z,97682.00
2019-03-19T00:47:31.912Z,97692.00
2019-03-19T00:50:03.056Z,97688.00
2019-03-19T00:52:34.470Z,97682.00
2019-03-19T00:55:05.885Z,97690.00
2019-03-19T00:57:37.163Z,97686.00
2019-03-19T01:00:08.886Z,97684.00
2019-03-19T01:02:40.012Z,97693.00
2019-03-19T01:05:11.400Z,97684.00
2019-03-19T01:07:42.758Z,97690.00
2019-03-19T01:10:14.031Z,97696.00
2019-03-19T01:12:46.162Z,97713.00
2019-03-19T01:15:17.410Z,97694.00
2019-03-19T01:17:48.690Z,97697.00
2019-03-19T01:20:20.038Z,97694.00
2019-03-19T01:22:51.202Z,97696.00
2019-03-19T01:25:23.054Z,97694.00
2019-03-19T01:27:54.128Z,97693.00
2019-03-19T01:30:25.325Z,97699.00
2019-03-19T01:32:56.343Z,97692.00
2019-03-19T01:35:27.517Z,97696.00
2019-03-19T01:37:58.855Z,97694.00
2019-03-19T01:40:30.010Z,97691.00
2019-03-19T01:43:01.071Z,97692.00
2019-03-19T01:45:32.343Z,97700.00
2019-03-19T01:48:03.507Z,97687.00
2019-03-19T01:50:34.706Z,97696.00
2019-03-19T01:53:05.979Z,97699.00
2019-03-19T01:55:37.268Z,97694.00
2019-03-19T01:58:08.417Z,97696.00
2019-03-19T02:00:39.603Z,97696.00
2019-03-19T02:03:10.769Z,97706.00
2019-03-19T02:05:41.981Z,97708.00
2019-03-19T02:08:13.387Z,97709.00
2019-03-19T02:10:44.841Z,97716.00
2019-03-19T02:13:16.174Z,97706.00
2019-03-19T02:15:47.292Z,97707.00
2019-03-19T02:18:19.089Z,97716.00
2019-03-19T02:20:50.581Z,97729.00
2019-03-19T02:23:22.011Z,97716.00
2019-03-19T02:25:53.202Z,97731.00
2019-03-19T02:28:24.426Z,97723.00
2019-03-19T02:30:55.847Z,97726.00
2019-03-19T02:33:27.284Z,97730.00
2019-03-19T02:35:58.305Z,97753.00
2019-03-19T02:38:29.448Z,97744.00
2019-03-19T02:41:00.876Z,97746.00
2019-03-19T02:43:32.356Z,97755.00
2019-03-19T02:46:03.912Z,97746.00
2019-03-19T02:48:36.247Z,97750.00
2019-03-19T02:51:07.354Z,97758.00
2019-03-19T02:53:38.537Z,97752.00
2019-03-19T02:56:09.701Z,97776.00
2019-03-19T02:58:41.117Z,97773.00
2019-03-19T03:01:12.377Z,97773.00
2019-03-19T03:03:43.620Z,97780.00
2019-03-19T03:06:15.174Z,97786.00
2019-03-19T03:08:46.414Z,97795.00
2019-03-19T03:11:18.175Z,97776.00
2019-03-19T03:13:49.561Z,97783.00
2019-03-19T03:16:20.788Z,97786.00
2019-03-19T03:18:52.305Z,97790.00
2019-03-19T03:21:24.322Z,97792.00
2019-03-19T03:23:55.333Z,97795.00
2019-03-19T03:26:26.464Z,97795.00
2019-03-19T03:28:57.799Z,97806.00
2019-03-19T03:31:28.984Z,97800.00
2019-03-19T03:34:00.100Z,97813.00
2019-03-19T03:36:31.475Z,97806.00
2019-03-19T03:39:02.861Z,97800.00
2019-03-19T03:41:34.525Z,97800.00
2019-03-19T03:44:07.078Z,97814.00
2019-03-19T03:46:38.283Z,97805.00
2019-03-19T03:49:09.506Z,97811.00
2019-03-19T03:51:40.698Z,97810.00
2019-03-19T03:54:12.149Z,97813.00
2019-03-19T03:56:43.404Z,97803.00
2019-03-19T03:59:14.457Z,97810.00
2019-03-19T04:01:45.815Z,97807.00
2019-03-19T04:04:17.078Z,97818.00
2019-03-19T04:06:49.235Z,97835.00
2019-03-19T04:09:20.958Z,97821.00
2019-03-19T04:11:52.215Z,97839.00
2019-03-19T04:14:23.608Z,97837.00
2019-03-19T04:16:54.768Z,97840.00
2019-03-19T04:19:26.067Z,97828.00
2019-03-19T04:21:57.235Z,97838.00
2019-03-19T04:24:28.489Z,97828.00
2019-03-19T04:26:59.875Z,97823.00
2019-03-19T04:29:31.004Z,97836.00
2019-03-19T04:32:02.183Z,97840.00
2019-03-19T04:34:33.320Z,97828.00
2019-03-19T04:37:04.532Z,97831.00
2019-03-19T04:39:36.022Z,97826.00
2019-03-19T04:42:07.181Z,97837.00
2019-03-19T04:44:39.831Z,97845.00
2019-03-19T04:47:10.911Z,97849.00
2019-03-19T04:49:42.016Z,97849.00
2019-03-19T04:52:13.109Z,97860.00
2019-03-19T04:54:44.378Z,97857.00
2019-03-19T04:57:26.044Z,97852.00
2019-03-19T04:59:48.456Z,97863.00
2019-03-19T05:02:19.631Z,97858.00
2019-03-19T05:04:51.116Z,97868.00
2019-03-19T05:07:22.234Z,97866.00
2019-03-19T05:09:53.537Z,97866.00
2019-03-19T05:12:24.724Z,97866.00
2019-03-19T05:14:55.844Z,97872.00
2019-03-19T05:17:26.870Z,97879.00
2019-03-19T05:19:58.333Z,97873.00
2019-03-19T05:22:29.517Z,97891.00
2019-03-19T05:25:00.568Z,97883.00
2019-03-19T05:27:37.274Z,97880.00
2019-03-19T05:30:05.473Z,97905.00
2019-03-19T05:32:36.737Z,97902.00
2019-03-19T05:35:09.122Z,97914.00
2019-03-19T05:37:40.579Z,97906.00
2019-03-19T05:40:12.132Z,97907.00
2019-03-19T05:42:43.363Z,97891.00
2019-03-19T05:45:14.765Z,97899.00
2019-03-19T05:47:46.007Z,97903.00
2019-03-19T05:50:17.337Z,97900.00
2019-03-19T05:52:48.978Z,97909.00
2019-03-19T05:55:20.421Z,97915.00
2019-03-19T05:57:51.563Z,97925.00
2019-03-19T06:00:25.022Z,97928.00
2019-03-19T06:02:56.187Z,97921.00
2019-03-19T06:05:27.856Z,97911.00
2019-03-19T06:07:59.302Z,97914.00
2019-03-19T06:10:30.624Z,97922.00
2019-03-19T06:13:02.039Z,97927.00
2019-03-19T06:15:33.231Z,97931.00
2019-03-19T06:18:04.941Z,97935.00
2019-03-19T06:20:36.251Z,97932.00
2019-03-19T06:23:07.440Z,97936.00
2019-03-19T06:25:38.888Z,97935.00
2019-03-19T06:28:10.187Z,97935.00
2019-03-19T06:30:41.309Z,97934.00
2019-03-19T06:33:12.589Z,97945.00
2019-03-19T06:35:43.785Z,97950.00
2019-03-19T06:38:15.388Z,97944.00
2019-03-19T06:40:46.650Z,97956.00
2019-03-19T06:43:17.792Z,97950.00
2019-03-19T06:45:49.095Z,97949.00
2019-03-19T06:48:20.192Z,97955.00
2019-03-19T06:50:51.538Z,97955.00
2019-03-19T06:53:22.751Z,97958.00
2019-03-19T06:55:54.017Z,97968.00
2019-03-19T06:58:25.046Z,97965.00
2019-03-19T07:00:56.290Z,97962.00
2019-03-19T07:03:27.493Z,97967.00
2019-03-19T07:05:58.809Z,97953.00
2019-03-19T07:08:30.255Z,97957.00
2019-03-19T07:11:01.531Z,97963.00
2019-03-19T07:13:32.717Z,97970.00
2019-03-19T07:16:04.414Z,97971.00
2019-03-19T07:18:36.007Z,97971.00
2019-03-19T07:21:07.607Z,97973.00
2019-03-19T07:23:39.166Z,97981.00
2019-03-19T07:26:11.117Z,97982.00
2019-03-19T07:28:42.500Z,97987.00
2019-03-19T07:31:13.788Z,97985.00
2019-03-19T07:33:45.131Z,97991.00
2019-03-19T07:36:16.329Z,97986.00
2019-03-19T07:38:47.597Z,97998.00
2019-03-19T07:41:18.846Z,97988.00
2019-03-19T07:43:50.038Z,97999.00
2019-03-19T07:46:21.149Z,97993.00
2019-03-19T07:48:52.749Z,97993.00
2019-03-19T07:51:23.860Z,97994.00
2019-03-19T07:53:54.989Z,98002.00
2019-03-19T07:56:26.472Z,98003.00
2019-03-19T07:58:58.231Z,98006.00
2019-03-19T08:01:29.307Z,98018.00
2019-03-19T08:04:00.430Z,98012.00
2019-03-19T08:06:32.769Z,98021.00
2019-03-19T08:09:06.310Z,98021.00
2019-03-19T08:11:37.527Z,98009.00
2019-03-19T08:14:10.027Z,98011.00
2019-03-19T08:16:41.251Z,98030.00
2019-03-19T08:19:12.810Z,98027.00
2019-03-19T08:21:44.023Z,98029.00
2019-03-19T08:24:15.708Z,98046.00
2019-03-19T08:26:49.084Z,98036.00
2019-03-19T08:29:19.836Z,98040.00
2019-03-19T08:31:52.494Z,98046.00
2019-03-19T08:34:25.197Z,98040.00
2019-03-19T08:36:56.548Z,98052.00
2019-03-19T08:39:27.811Z,98060.00
2019-03-19T08:41:59.002Z,98060.00
2019-03-19T08:44:30.319Z,98061.00
2019-03-19T08:47:01.492Z,98060.00
2019-03-19T08:49:32.903Z,98061.00
2019-03-19T08:52:04.130Z,98065.00
2019-03-19T08:54:35.477Z,98063.00
2019-03-19T08:57:06.673Z,98070.00
2019-03-19T08:59:37.831Z,98070.00
2019-03-19T09:02:08.919Z,98071.00
2019-03-19T09:04:40.061Z,98079.00
2019-03-19T09:07:11.233Z,98083.00
2019-03-19T09:09:42.417Z,98079.00
2019-03-19T09:12:13.568Z,98087.00
2019-03-19T09:14:45.037Z,98081.00
2019-03-19T09:17:16.074Z,98089.00
2019-03-19T09:19:47.272Z,98090.00
2019-03-19T09:22:19.975Z,98089.00
2019-03-19T09:24:51.593Z,98085.00
2019-03-19T09:27:23.142Z,98087.00
2019-03-19T09:29:54.295Z,98084.00
2019-03-19T09:32:25.564Z,98088.00
2019-03-19T09:34:56.600Z,98107.00
2019-03-19T09:37:27.837Z,98103.00
2019-03-19T09:39:58.975Z,98104.00
2019-03-19T09:42:30.562Z,98104.00
2019-03-19T09:45:01.736Z,98108.00
2019-03-19T09:47:33.978Z,98112.00
2019-03-19T09:50:05.976Z,98114.00
2019-03-19T09:52:37.180Z,98106.00
2019-03-19T09:55:09.462Z,98105.00
2019-03-19T09:57:40.738Z,98104.00
2019-03-19T10:00:16.250Z,98101.00
2019-03-19T10:02:47.514Z,98108.00
2019-03-19T10:05:18.996Z,98105.00
2019-03-19T10:07:51.495Z,98108.00
2019-03-19T10:10:22.978Z,98111.00
2019-03-19T10:12:54.115Z,98107.00
2019-03-19T10:15:25.445Z,98105.00
2019-03-19T10:17:56.906Z,98105.00
2019-03-19T10:20:28.250Z,98110.00
2019-03-19T10:23:03.108Z,98116.00
2019-03-19T10:25:34.938Z,98128.00
2019-03-19T10:28:06.262Z,98121.00
2019-03-19T10:30:38.076Z,98119.00
2019-03-19T10:33:10.911Z,98126.00
2019-03-19T10:35:42.233Z,98124.00
2019-03-19T10:38:13.427Z,98138.00
2019-03-19T10:40:44.738Z,98135.00
2019-03-19T10:43:16.204Z,98142.00
2019-03-19T10:45:47.844Z,98146.00
2019-03-19T10:48:18.934Z,98130.00
2019-03-19T10:50:50.134Z,98137.00
2019-03-19T10:53:21.436Z,98138.00
2019-03-19T10:55:52.727Z,98149.00
2019-03-19T10:58:24.112Z,98142.00
2019-03-19T11:00:55.841Z,98143.00
2019-03-19T11:03:27.053Z,98133.00
2019-03-19T11:05:58.324Z,98136.00
2019-03-19T11:08:30.617Z,98139.00
2019-03-19T11:11:03.611Z,98143.00
2019-03-19T11:13:34.979Z,98154.00
2019-03-19T11:16:06.298Z,98153.00
2019-03-19T11:18:37.392Z,98148.00
2019-03-19T11:21:08.611Z,98149.00
2019-03-19T11:23:39.657Z,98153.00
2019-03-19T11:26:11.171Z,98165.00
2019-03-19T11:28:42.378Z,98153.00
2019-03-19T11:31:13.586Z,98150.00
2019-03-19T11:33:47.622Z,98145.00
2019-03-19T11:36:18.020Z,98146.00
2019-03-19T11:38:49.185Z,98150.00
2019-03-19T11:41:20.398Z,98156.00
2019-03-19T11:43:51.567Z,98147.00
2019-03-19T11:46:22.804Z,98145.00
2019-03-19T11:48:54.219Z,98152.00
2019-03-19T11:51:25.338Z,98151.00
2019-03-19T11:53:56.380Z,98137.00
2019-03-19T11:56:27.748Z,98133.00
2019-03-19T11:58:59.944Z,98138.00
2019-03-19T12:01:31.226Z,98139.00
2019-03-19T12:04:02.816Z,98146.00
2019-03-19T12:06:33.945Z,98146.00
2019-03-19T12:09:07.642Z,98133.00
2019-03-19T12:11:38.812Z,98127.00
2019-03-19T12:14:09.981Z,98133.00
2019-03-19T12:16:41.105Z,98130.00
2019-03-19T12:19:12.350Z,98132.00
2019-03-19T12:21:43.619Z,98142.00
2019-03-19T12:24:14.810Z,98134.00
2019-03-19T12:26:46.088Z,98135.00
2019-03-19T12:29:17.489Z,98141.00
2019-03-19T12:31:48.676Z,98129.00
2019-03-19T12:34:20.187Z,98128.00
2019-03-19T12:36:51.480Z,98132.00
2019-03-19T12:39:22.678Z,98139.00
2019-03-19T12:41:53.820Z,98145.00
2019-03-19T12:44:25.319Z,98134.00
2019-03-19T12:46:56.914Z,98143.00
2019-03-19T12:49:28.419Z,98146.00
2019-03-19T12:51:59.613Z,98134.00
2019-03-19T12:54:30.880Z,98147.00
2019-03-19T12:57:02.413Z,98131.00
2019-03-19T12:59:33.661Z,98160.00
2019-03-19T13:02:04.970Z,98147.00
2019-03-19T13:04:36.672Z,98145.00
2019-03-19T13:07:07.884Z,98151.00
2019-03-19T13:09:39.030Z,98153.00
2019-03-19T13:12:10.222Z,98153.00
2019-03-19T13:14:41.649Z,98158.00
2019-03-19T13:17:12.788Z,98169.00
2019-03-19T13:19:44.140Z,98165.00
2019-03-19T13:22:15.506Z,98170.00
2019-03-19T13:24:46.707Z,98165.00
2019-03-19T13:27:18.086Z,98159.00
2019-03-19T13:29:49.377Z,98161.00
2019-03-19T13:32:21.288Z,98173.00
2019-03-19T13:34:53.314Z,98167.00
2019-03-19T13:37:24.683Z,98168.00
2019-03-19T13:39:56.083Z,98174.00
2019-03-19T13:42:27.218Z,98180.00
2019-03-19T13:44:58.503Z,98182.00
2019-03-19T13:47:29.710Z,98184.00
2019-03-19T13:50:00.913Z,98174.00
2019-03-19T13:52:32.036Z,98182.00
2019-03-19T13:55:03.300Z,98175.00
2019-03-19T13:57:34.462Z,98180.00
2019-03-19T14:00:07.418Z,98184.00
2019-03-19T14:02:38.799Z,98182.00
2019-03-19T14:05:10.641Z,98198.00
2019-03-19T14:07:41.868Z,98192.00
2019-03-19T14:10:13.588Z,98196.00
2019-03-19T14:12:44.908Z,98197.00
2019-03-19T14:15:16.948Z,98194.00
2019-03-19T14:17:48.645Z,98201.00
2019-03-19T14:20:19.901Z,98205.00
2019-03-19T14:22:51.137Z,98203.00
2019-03-19T14:25:22.349Z,98200.00
2019-03-19T14:27:53.620Z,98194.00
2019-03-19T14:30:24.951Z,98201.00
2019-03-19T14:32:56.602Z,98214.00
2019-03-19T14:35:36.849Z,98202.00
2019-03-19T14:38:01.256Z,98211.00
2019-03-19T14:40:32.696Z,98205.00
2019-03-19T14:43:04.033Z,98203.00
2019-03-19T14:45:35.713Z,98194.00
2019-03-19T14:48:07.774Z,98201.00
2019-03-19T14:50:39.578Z,98205.00
2019-03-19T14:53:10.710Z,98206.00
2019-03-19T14:55:41.953Z,98203.00
2019-03-19T14:58:13.463Z,98206.00
2019-03-19T15:00:45.201Z,98205.00
2019-03-19T15:03:16.887Z,98211.00
2019-03-19T15:05:48.135Z,98211.00
2019-03-19T15:08:19.805Z,98205.00
2019-03-19T15:10:51.016Z,98206.00
2019-03-19T15:13:22.435Z,98224.00
2019-03-19T15:15:53.628Z,98223.00
2019-03-19T15:18:25.109Z,98215.00
2019-03-19T15:20:56.242Z,98226.00
2019-03-19T15:23:27.815Z,98231.00
2019-03-19T15:25:59.419Z,98239.00
2019-03-19T15:28:30.677Z,98226.00
2019-03-19T15:31:01.946Z,98218.00
2019-03-19T15:33:33.673Z,98218.00
2019-03-19T15:36:04.842Z,98224.00
2019-03-19T15:38:36.085Z,98234.00
2019-03-19T15:41:07.336Z,98237.00
2019-03-19T15:43:38.564Z,98236.00
2019-03-19T15:46:09.759Z,98238.00
2019-03-19T15:48:40.977Z,98236.00
2019-03-19T15:51:12.228Z,98240.00
2019-03-19T15:53:43.341Z,98237.00
2019-03-19T15:56:14.792Z,98238.00
2019-03-19T15:58:46.425Z,98235.00
2019-03-19T16:01:17.999Z,98248.00
2019-03-19T16:03:50.120Z,98242.00
2019-03-19T16:06:21.790Z,98247.00
2019-03-19T16:08:52.854Z,98240.00
2019-03-19T16:11:24.011Z,98246.00
2019-03-19T16:13:55.059Z,98263.00
2019-03-19T16:16:26.235Z,98257.00
2019-03-19T16:18:57.415Z,98267.00
2019-03-19T16:21:28.549Z,98265.00
2019-03-19T16:24:00.933Z,98260.00
2019-03-19T16:26:32.037Z,98266.00
2019-03-19T16:29:03.381Z,98282.00
2019-03-19T16:31:35.903Z,98269.00
2019-03-19T16:34:07.258Z,98278.00
2019-03-19T16:36:38.288Z,98280.00
2019-03-19T16:39:09.538Z,98286.00
2019-03-19T16:41:40.808Z,98294.00
2019-03-19T16:44:12.019Z,98296.00
2019-03-19T16:46:43.701Z,98298.00
2019-03-19T16:49:14.847Z,98300.00
2019-03-19T16:51:46.663Z,98305.00
2019-03-19T16:54:18.240Z,98305.00
2019-03-19T16:56:49.277Z,98303.00
2019-03-19T16:59:20.631Z,98304.00
2019-03-19T17:02:01.524Z,98307.00
2019-03-19T17:04:24.653Z,98316.00
2019-03-19T17:06:56.088Z,98325.00
2019-03-19T17:09:27.286Z,98333.00
2019-03-19T17:11:58.471Z,98334.00
2019-03-19T17:14:29.829Z,98342.00
2019-03-19T17:17:01.018Z,98346.00
2019-03-19T17:19:32.211Z,98348.00
2019-03-19T17:22:03.484Z,98341.00
2019-03-19T17:24:34.706Z,98353.00
2019-03-19T17:27:05.945Z,98352.00
2019-03-19T17:29:37.494Z,98355.00
2019-03-19T17:32:13.192Z,98356.00
2019-03-19T17:34:42.327Z,98361.00
2019-03-19T17:37:13.415Z,98351.00
2019-03-19T17:39:44.925Z,98354.00
2019-03-19T17:42:16.182Z,98359.00
2019-03-19T17:44:47.325Z,98364.00
2019-03-19T17:47:18.504Z,98367.00
2019-03-19T17:49:49.630Z,98366.00
2019-03-19T17:52:21.062Z,98368.00
2019-03-19T17:54:52.273Z,98366.00
2019-03-19T17:57:23.408Z,98367.00
2019-03-19T17:59:54.606Z,98378.00
2019-03-19T18:02:26.446Z,98378.00
2019-03-19T18:04:58.025Z,98380.00
2019-03-19T18:07:29.181Z,98371.00
2019-03-19T18:10:00.722Z,98385.00
2019-03-19T18:12:31.974Z,98379.00
2019-03-19T18:15:03.599Z,98385.00
2019-03-19T18:17:34.888Z,98391.00
2019-03-19T18:20:06.814Z,98396.00
2019-03-19T18:22:38.008Z,98402.00
2019-03-19T18:25:10.080Z,98404.00
2019-03-19T18:27:41.331Z,98398.00
2019-03-19T18:30:14.272Z,98406.00
2019-03-19T18:32:46.210Z,98412.00
2019-03-19T18:35:17.475Z,98400.00
2019-03-19T18:37:48.781Z,98420.00
2019-03-19T18:40:19.987Z,98414.00
2019-03-19T18:42:51.197Z,98430.00
2019-03-19T18:45:22.561Z,98442.00
2019-03-19T18:47:53.812Z,98424.00
2019-03-19T18:50:25.075Z,98427.00
2019-03-19T18:52:56.242Z,98436.00
2019-03-19T18:55:27.779Z,98432.00
2019-03-19T18:57:58.993Z,98436.00
2019-03-19T19:00:30.108Z,98440.00
2019-03-19T19:03:03.808Z,98424.00
2019-03-19T19:05:35.138Z,98428.00
2019-03-19T19:08:06.391Z,98443.00
2019-03-19T19:10:37.992Z,98434.00
2019-03-19T19:13:09.157Z,98440.00
2019-03-19T19:15:40.431Z,98448.00
2019-03-19T19:18:11.557Z,98449.00
2019-03-19T19:20:43.053Z,98440.00
2019-03-19T19:23:14.227Z,98441.00
2019-03-19T19:25:45.456Z,98449.00
2019-03-19T19:28:17.295Z,98449.00
2019-03-19T19:30:48.977Z,98459.00
2019-03-19T19:33:20.279Z,98444.00
2019-03-19T19:35:51.337Z,98443.00
2019-03-19T19:38:22.726Z,98448.00
2019-03-19T19:40:53.959Z,98447.00
2019-03-19T19:43:25.118Z,98458.00
2019-03-19T19:45:56.393Z,98463.00
2019-03-19T19:48:27.498Z,98451.00
2019-03-19T19:50:58.624Z,98462.00
2019-03-19T19:53:29.754Z,98460.00
2019-03-19T19:56:00.995Z,98463.00
2019-03-19T19:58:32.420Z,98458.00
2019-03-19T20:01:03.972Z,98477.00
2019-03-19T20:03:35.333Z,98483.00
2019-03-19T20:06:06.509Z,98500.00
2019-03-19T20:08:37.666Z,98489.00
2019-03-19T20:11:09.014Z,98486.00
2019-03-19T20:13:40.525Z,98486.00
2019-03-19T20:16:11.815Z,98489.00
2019-03-19T20:18:43.277Z,98482.00
2019-03-19T20:21:14.838Z,98483.00
2019-03-19T20:23:45.918Z,98491.00
2019-03-19T20:26:17.126Z,98490.00
2019-03-19T20:28:48.226Z,98486.00
2019-03-19T20:31:19.429Z,98482.00
2019-03-19T20:33:50.906Z,98485.00
2019-03-19T20:36:22.092Z,98492.00
2019-03-19T20:38:53.141Z,98503.00
2019-03-19T20:41:24.304Z,98498.00
2019-03-19T20:43:56.163Z,98508.00
2019-03-19T20:46:27.667Z,98502.00
2019-03-19T20:48:58.983Z,98507.00
2019-03-19T20:51:30.237Z,98516.00
2019-03-19T20:54:01.481Z,98511.00
2019-03-19T20:56:33.039Z,98509.00
2019-03-19T20:59:04.284Z,98508.00
2019-03-19T21:01:35.767Z,98506.00
2019-03-19T21:04:06.976Z,98515.00
2019-03-19T21:06:38.113Z,98530.00
2019-03-19T21:09:09.989Z,98522.00
2019-03-19T21:11:41.361Z,98518.00
2019-03-19T21:14:12.544Z,98517.00
2019-03-19T21:16:43.749Z,98531.00
2019-03-19T21:19:15.166Z,98527.00
2019-03-19T21:21:46.549Z,98540.00
2019-03-19T21:24:18.146Z,98539.00
2019-03-19T21:26:49.410Z,98537.00
2019-03-19T21:29:20.948Z,98542.00
2019-03-19T21:31:52.219Z,98540.00
2019-03-19T21:34:23.651Z,98539.00
2019-03-19T21:36:55.017Z,98535.00
2019-03-19T21:39:26.121Z,98541.00
2019-03-19T21:41:57.199Z,98542.00
2019-03-19T21:44:28.439Z,98540.00
2019-03-19T21:47:00.639Z,98548.00
2019-03-19T21:49:32.192Z,98539.00
2019-03-19T21:52:03.702Z,98544.00
2019-03-19T21:54:34.984Z,98548.00
2019-03-19T21:57:06.459Z,98553.00
2019-03-19T21:59:37.910Z,98550.00
2019-03-19T22:02:09.475Z,98546.00
2019-03-19T22:04:40.738Z,98551.00
2019-03-19T22:07:11.999Z,98564.00
2019-03-19T22:09:43.645Z,98572.00
2019-03-19T22:12:15.117Z,98562.00
2019-03-19T22:14:46.216Z,98563.00
2019-03-19T22:17:17.789Z,98568.00
2019-03-19T22:19:49.044Z,98575.00
2019-03-19T22:22:20.693Z,98575.00
2019-03-19T22:24:52.110Z,98569.00
2019-03-19T22:27:23.150Z,98573.00
2019-03-19T22:29:54.386Z,98566.00
2019-03-19T22:32:25.586Z,98571.00
2019-03-19T22:34:56.758Z,98568.00
2019-03-19T22:37:28.575Z,98567.00
2019-03-19T22:39:59.756Z,98569.00
2019-03-19T22:42:31.361Z,98567.00
2019-03-19T22:45:03.054Z,98564.00
2019-03-19T22:47:34.687Z,98567.00
2019-03-19T22:50:07.577Z,98569.00
2019-03-19T22:52:38.839Z,98565.00
2019-03-19T22:55:10.449Z,98566.00
2019-03-19T22:57:41.709Z,98581.00
2019-03-19T23:00:23.792Z,98568.00
2019-03-19T23:02:59.089Z,98565.00
2019-03-19T23:05:30.271Z,98575.00
2019-03-19T23:08:01.956Z,98553.00
2019-03-19T23:10:33.212Z,98581.00
2019-03-19T23:13:06.541Z,98580.00
2019-03-19T23:15:37.765Z,98581.00
2019-03-19T23:18:09.266Z,98577.00
2019-03-19T23:20:40.574Z,98570.00
2019-03-19T23:23:11.833Z,98582.00
2019-03-19T23:25:42.995Z,98577.00
2019-03-19T23:28:14.480Z,98590.00
2019-03-19T23:30:45.775Z,98596.00
2019-03-19T23:33:17.282Z,98587.00
2019-03-19T23:35:48.922Z,98584.00
2019-03-19T23:38:20.271Z,98582.00
2019-03-19T23:40:51.871Z,98588.00
2019-03-19T23:43:23.381Z,98582.00
2019-03-19T23:45:54.718Z,98607.00
2019-03-19T23:48:26.270Z,98589.00
2019-03-19T23:50:58.045Z,98606.00
2019-03-19T23:53:29.539Z,98598.00
2019-03-19T23:56:00.590Z,98595.00
2019-03-19T23:58:32.136Z,98594.00
